Terminal Aerodrome Forecast
Issued by NWS

Home | Current Version | Previous Version | Text Only | Print | Product List | Glossary On
Versions: 1 2 3 4 5 6 7 8 9 10 11 12 13 14 15 16 17 18 19 20 21 22 23 24 25 26 27 28
000
FTUS44 KSJT 030500
TAFBBD
TAF
KBBD 030539Z 0306/0406 11003KT 1/2SM FG OVC002
     FM031200 15006KT 1SM BR OVC003
     FM031500 17010KT 5SM BR BKN008
     FM032000 17012KT P6SM SCT012 BKN250
     FM040300 16005KT P6SM BKN012=

USA.gov is the U.S. government's official web portal to all federal, state and local government web resources and services.